createdAt,value
2018-08-16T00:00:32.672Z,99278.92
2018-08-16T00:03:01.815Z,99284.80
2018-08-16T00:05:31.028Z,99286.31
2018-08-16T00:08:00.371Z,99282.33
2018-08-16T00:10:35.497Z,99283.96
2018-08-16T00:13:05.090Z,99283.08
2018-08-16T00:15:38.423Z,99280.55
2018-08-16T00:18:07.902Z,99286.94
2018-08-16T00:20:38.029Z,99279.66
2018-08-16T00:23:07.069Z,99275.80
2018-08-16T00:25:36.255Z,99284.47
2018-08-16T00:28:05.657Z,99276.72
2018-08-16T00:30:34.890Z,99282.05
2018-08-16T00:33:03.791Z,99281.55
2018-08-16T00:35:32.718Z,99284.22
2018-08-16T00:38:01.785Z,99279.28
2018-08-16T00:40:31.075Z,99279.27
2018-08-16T00:43:01.128Z,99281.61
2018-08-16T00:45:30.111Z,99281.06
2018-08-16T00:47:59.084Z,99281.22
2018-08-16T00:50:28.064Z,99283.55
2018-08-16T00:52:56.901Z,99283.02
2018-08-16T00:55:26.237Z,99279.78
2018-08-16T00:58:02.569Z,99286.81
2018-08-16T01:00:32.377Z,99284.23
2018-08-16T01:03:07.553Z,99281.00
2018-08-16T01:05:37.399Z,99280.39
2018-08-16T01:08:06.579Z,99283.55
2018-08-16T01:10:36.073Z,99282.33
2018-08-16T01:13:05.434Z,99281.30
2018-08-16T01:15:34.430Z,99287.86
2018-08-16T01:18:03.448Z,99276.41
2018-08-16T01:20:32.725Z,99272.38
2018-08-16T01:23:01.638Z,99266.95
2018-08-16T01:25:30.420Z,99273.66
2018-08-16T01:28:00.654Z,99268.63
2018-08-16T01:30:37.788Z,99271.79
2018-08-16T01:33:07.262Z,99276.66
2018-08-16T01:35:38.327Z,99278.19
2018-08-16T01:38:07.871Z,99274.84
2018-08-16T01:40:38.503Z,99274.34
2018-08-16T01:43:07.732Z,99278.03
2018-08-16T01:45:37.647Z,99272.98
2018-08-16T01:48:10.988Z,99275.81
2018-08-16T01:50:40.210Z,99275.41
2018-08-16T01:53:09.325Z,99278.72
2018-08-16T01:55:38.212Z,99277.19
2018-08-16T01:58:07.266Z,99277.28
2018-08-16T02:00:36.285Z,99278.75
2018-08-16T02:03:05.485Z,99272.09
2018-08-16T02:05:34.431Z,99277.52
2018-08-16T02:08:03.411Z,99277.94
2018-08-16T02:10:32.535Z,99276.41
2018-08-16T02:13:01.629Z,99281.43
2018-08-16T02:15:30.632Z,99282.77
2018-08-16T02:18:00.070Z,99280.59
2018-08-16T02:20:28.988Z,99282.08
2018-08-16T02:22:57.920Z,99281.93
2018-08-16T02:25:27.565Z,99281.78
2018-08-16T02:27:56.589Z,99283.97
2018-08-16T02:30:25.663Z,99281.78
2018-08-16T02:32:55.450Z,99279.05
2018-08-16T02:35:24.408Z,99288.44
2018-08-16T02:37:54.322Z,99285.80
2018-08-16T02:40:23.784Z,99284.08
2018-08-16T02:42:52.605Z,99273.36
2018-08-16T02:45:21.529Z,99279.56
2018-08-16T02:47:50.450Z,99283.23
2018-08-16T02:50:19.372Z,99285.92
2018-08-16T02:52:48.470Z,99271.71
2018-08-16T02:55:17.575Z,99279.45
2018-08-16T02:57:46.777Z,99281.74
2018-08-16T03:00:15.824Z,99285.15
2018-08-16T03:02:44.956Z,99277.26
2018-08-16T03:05:13.848Z,99280.63
2018-08-16T03:07:42.893Z,99278.14
2018-08-16T03:10:12.259Z,99287.68
2018-08-16T03:12:41.250Z,99289.02
2018-08-16T03:15:11.122Z,99289.71
2018-08-16T03:17:40.985Z,99289.33
2018-08-16T03:20:09.967Z,99287.98
2018-08-16T03:22:39.185Z,99298.55
2018-08-16T03:25:08.640Z,99299.70
2018-08-16T03:27:41.435Z,99299.42
2018-08-16T03:30:17.053Z,99296.25
2018-08-16T03:32:45.892Z,99295.05
2018-08-16T03:35:14.859Z,99291.87
2018-08-16T03:37:43.925Z,99295.95
2018-08-16T03:40:12.788Z,99294.34
2018-08-16T03:42:42.536Z,99288.33
2018-08-16T03:45:11.553Z,99304.23
2018-08-16T03:47:40.516Z,99311.12
2018-08-16T03:50:09.785Z,99310.09
2018-08-16T03:52:38.956Z,99305.81
2018-08-16T03:55:08.026Z,99307.37
2018-08-16T03:57:37.107Z,99312.42
2018-08-16T04:00:07.822Z,99311.45
2018-08-16T04:02:36.827Z,99310.33
2018-08-16T04:05:06.462Z,99309.44
2018-08-16T04:07:35.760Z,99311.56
2018-08-16T04:10:05.186Z,99318.92
2018-08-16T04:12:34.182Z,99310.73
2018-08-16T04:15:03.860Z,99308.31
2018-08-16T04:17:35.112Z,99312.26
2018-08-16T04:20:05.277Z,99312.17
2018-08-16T04:22:34.639Z,99313.27
2018-08-16T04:25:03.999Z,99315.98
2018-08-16T04:27:33.368Z,99317.86
2018-08-16T04:30:02.345Z,99317.64
2018-08-16T04:32:31.473Z,99309.63
2018-08-16T04:35:00.722Z,99313.72
2018-08-16T04:37:29.827Z,99316.25
2018-08-16T04:39:58.947Z,99327.41
2018-08-16T04:42:29.138Z,99328.83
2018-08-16T04:44:58.104Z,99326.02
2018-08-16T04:47:26.985Z,99321.70
2018-08-16T04:49:55.765Z,99324.53
2018-08-16T04:52:24.795Z,99326.25
2018-08-16T04:54:53.766Z,99319.72
2018-08-16T04:57:24.103Z,99321.91
2018-08-16T04:59:53.182Z,99324.48
2018-08-16T05:02:22.131Z,99319.06
2018-08-16T05:04:50.960Z,99328.34
2018-08-16T05:07:19.818Z,99330.39
2018-08-16T05:09:48.941Z,99328.25
2018-08-16T05:12:17.849Z,99331.44
2018-08-16T05:14:46.768Z,99324.47
2018-08-16T05:17:15.621Z,99327.66
2018-08-16T05:19:45.138Z,99324.58
2018-08-16T05:22:14.115Z,99329.06
2018-08-16T05:24:42.956Z,99329.66
2018-08-16T05:27:12.440Z,99325.70
2018-08-16T05:29:41.411Z,99328.33
2018-08-16T05:32:10.170Z,99330.05
2018-08-16T05:34:39.504Z,99334.62
2018-08-16T05:37:08.427Z,99331.73
2018-08-16T05:39:37.225Z,99334.12
2018-08-16T05:42:06.380Z,99332.67
2018-08-16T05:44:35.266Z,99329.52
2018-08-16T05:47:04.112Z,99335.27
2018-08-16T05:49:33.430Z,99334.57
2018-08-16T05:52:02.353Z,99331.94
2018-08-16T05:54:31.100Z,99329.47
2018-08-16T05:57:00.512Z,99331.33
2018-08-16T05:59:29.426Z,99332.30
2018-08-16T06:01:58.206Z,99337.11
2018-08-16T06:04:27.699Z,99338.45
2018-08-16T06:06:56.540Z,99332.02
2018-08-16T06:09:25.500Z,99331.33
2018-08-16T06:11:54.855Z,99334.34
2018-08-16T06:14:23.871Z,99331.23
2018-08-16T06:16:52.731Z,99334.77
2018-08-16T06:19:21.581Z,99335.05
2018-08-16T06:21:50.389Z,99330.80
2018-08-16T06:24:19.367Z,99327.87
2018-08-16T06:26:48.800Z,99326.98
2018-08-16T06:29:17.691Z,99329.77
2018-08-16T06:31:46.618Z,99328.90
2018-08-16T06:34:15.541Z,99326.31
2018-08-16T06:36:44.524Z,99329.14
2018-08-16T06:39:14.012Z,99330.58
2018-08-16T06:41:43.326Z,99326.36
2018-08-16T06:44:12.254Z,99328.50
2018-08-16T06:46:41.162Z,99327.72
2018-08-16T06:49:10.047Z,99324.94
2018-08-16T06:51:38.932Z,99326.75
2018-08-16T06:54:07.781Z,99316.19
2018-08-16T06:56:37.093Z,99321.98
2018-08-16T06:59:06.042Z,99317.82
2018-08-16T07:01:34.937Z,99313.28
2018-08-16T07:04:04.360Z,99315.83
2018-08-16T07:06:33.276Z,99322.82
2018-08-16T07:09:02.003Z,99317.85
2018-08-16T07:11:31.210Z,99322.23
2018-08-16T07:14:00.132Z,99317.58
2018-08-16T07:16:28.999Z,99314.12
2018-08-16T07:18:59.363Z,99319.72
2018-08-16T07:21:28.168Z,99318.52
2018-08-16T07:23:57.062Z,99316.85
2018-08-16T07:26:26.408Z,99315.17
2018-08-16T07:28:55.282Z,99320.25
2018-08-16T07:31:24.180Z,99313.34
2018-08-16T07:33:53.123Z,99313.33
2018-08-16T07:36:21.880Z,99306.38
2018-08-16T07:38:50.743Z,99310.13
2018-08-16T07:41:20.218Z,99300.92
2018-08-16T07:43:49.279Z,99300.45
2018-08-16T07:46:18.232Z,99301.73
2018-08-16T07:48:48.340Z,99303.72
2018-08-16T07:51:17.300Z,99303.11
2018-08-16T07:53:46.100Z,99303.52
2018-08-16T07:56:15.111Z,99298.56
2018-08-16T07:58:43.958Z,99296.02
2018-08-16T08:01:12.812Z,99296.80
2018-08-16T08:03:41.680Z,99296.91
2018-08-16T08:06:10.508Z,99296.95
2018-08-16T08:08:39.329Z,99298.63
2018-08-16T08:11:08.759Z,99295.59
2018-08-16T08:13:37.645Z,99294.02
2018-08-16T08:16:06.613Z,99290.71
2018-08-16T08:18:35.941Z,99297.33
2018-08-16T08:21:04.890Z,99293.48
2018-08-16T08:23:33.720Z,99290.77
2018-08-16T08:26:02.718Z,99291.34
2018-08-16T08:28:31.573Z,99279.52
2018-08-16T08:31:00.542Z,99288.83
2018-08-16T08:33:30.104Z,99290.92
2018-08-16T08:36:09.841Z,99282.22
2018-08-16T08:38:38.722Z,99279.51
2018-08-16T08:41:07.712Z,99270.50
2018-08-16T08:43:49.197Z,99265.00
2018-08-16T08:46:18.104Z,99265.92
2018-08-16T08:48:47.081Z,99269.80
2018-08-16T08:51:16.458Z,99265.79
2018-08-16T08:54:56.400Z,99260.78
2018-08-16T08:57:36.947Z,99268.59
2018-08-16T09:00:07.609Z,99267.63
2018-08-16T09:02:36.681Z,99260.69
2018-08-16T09:05:06.595Z,99254.83
2018-08-16T09:07:35.381Z,99248.69
2018-08-16T09:11:15.953Z,99250.66
2018-08-16T09:13:56.912Z,99250.71
2018-08-16T09:16:30.454Z,99252.05
2018-08-16T09:18:59.538Z,99251.96
2018-08-16T09:21:29.145Z,99241.78
2018-08-16T09:23:58.387Z,99243.48
2018-08-16T09:26:32.320Z,99239.61
2018-08-16T09:29:01.250Z,99237.16
2018-08-16T09:31:40.961Z,99235.78
2018-08-16T09:34:18.957Z,99236.80
2018-08-16T09:36:47.816Z,99230.11
2018-08-16T09:39:16.838Z,99229.77
2018-08-16T09:41:45.780Z,99230.35
2018-08-16T09:44:14.619Z,99229.99
2018-08-16T09:46:56.108Z,99225.50
2018-08-16T09:49:24.993Z,99214.56
2018-08-16T09:51:54.146Z,99212.06
2018-08-16T09:54:23.099Z,99210.06
2018-08-16T09:56:52.518Z,99216.98
2018-08-16T09:59:21.476Z,99208.64
2018-08-16T10:01:50.419Z,99208.80
2018-08-16T10:04:19.258Z,99204.23
2018-08-16T10:06:48.152Z,99204.80
2018-08-16T10:09:25.527Z,99204.92
2018-08-16T10:11:55.302Z,99193.07
2018-08-16T10:14:24.236Z,99191.34
2018-08-16T10:16:53.597Z,99194.86
2018-08-16T10:19:22.911Z,99196.77
2018-08-16T10:21:51.690Z,99190.16
2018-08-16T10:24:20.930Z,99177.87
2018-08-16T10:26:49.994Z,99186.18
2018-08-16T10:29:18.924Z,99184.30
2018-08-16T10:31:48.772Z,99184.89
2018-08-16T10:34:17.513Z,99184.05
2018-08-16T10:36:46.423Z,99178.55
2018-08-16T10:39:17.436Z,99177.05
2018-08-16T10:41:46.588Z,99175.23
2018-08-16T10:44:15.705Z,99173.81
2018-08-16T10:53:30.133Z,99169.44
2018-08-16T10:55:59.835Z,99166.18
2018-08-16T10:58:28.819Z,99167.78
2018-08-16T11:00:58.309Z,99173.09
2018-08-16T11:03:27.208Z,99164.89
2018-08-16T11:05:56.545Z,99174.27
2018-08-16T11:08:26.033Z,99162.55
2018-08-16T11:10:55.002Z,99165.27
2018-08-16T11:13:23.916Z,99163.91
2018-08-16T11:15:53.202Z,99164.11
2018-08-16T11:21:00.579Z,99154.92
2018-08-16T11:23:29.699Z,99156.08
2018-08-16T11:25:59.092Z,99156.72
2018-08-16T11:28:28.091Z,99153.73
2018-08-16T11:30:57.013Z,99153.49
2018-08-16T11:33:26.066Z,99145.23
2018-08-16T11:35:55.320Z,99151.87
2018-08-16T11:38:25.376Z,99148.22
2018-08-16T11:40:54.316Z,99140.78
2018-08-16T11:43:23.542Z,99137.25
2018-08-16T11:45:52.334Z,99128.76
2018-08-16T11:48:21.222Z,99138.92
2018-08-16T11:57:35.355Z,99131.41
2018-08-16T12:00:04.421Z,99126.99
2018-08-16T12:02:33.265Z,99131.02
2018-08-16T12:05:02.416Z,99124.79
2018-08-16T12:07:31.204Z,99124.34
2018-08-16T12:10:00.088Z,99130.78
2018-08-16T12:12:28.974Z,99135.95
2018-08-16T12:14:57.753Z,99131.37
2018-08-16T12:17:26.677Z,99119.77
2018-08-16T12:19:56.021Z,99111.81
2018-08-16T12:22:24.860Z,99120.22
2018-08-16T12:24:53.795Z,99112.80
2018-08-16T12:27:23.022Z,99112.62
2018-08-16T12:29:51.947Z,99106.79
2018-08-16T12:32:20.825Z,99104.34
2018-08-16T12:34:50.470Z,99099.91
2018-08-16T12:37:19.358Z,99096.17
2018-08-16T12:39:48.312Z,99105.67
2018-08-16T12:42:17.399Z,99102.18
2018-08-16T12:44:46.342Z,99095.05
2018-08-16T12:47:15.220Z,99091.95
2018-08-16T12:49:44.100Z,99095.29
2018-08-16T12:52:12.856Z,99090.17
2018-08-16T12:54:41.697Z,99082.03
2018-08-16T12:57:10.931Z,99079.25
2018-08-16T12:59:39.712Z,99076.32
2018-08-16T13:02:08.763Z,99085.35
2018-08-16T13:04:38.190Z,99076.55
2018-08-16T13:07:07.043Z,99075.55
2018-08-16T13:09:35.945Z,99076.13
2018-08-16T13:12:05.269Z,99073.27
2018-08-16T13:14:34.029Z,99080.04
2018-08-16T13:17:02.815Z,99074.14
2018-08-16T13:20:34.793Z,99065.67
2018-08-16T13:23:03.724Z,99060.20
2018-08-16T13:25:32.603Z,99052.11
2018-08-16T13:28:01.525Z,99060.92
2018-08-16T13:30:30.473Z,99056.19
2018-08-16T13:32:59.273Z,99041.13
2018-08-16T13:35:28.150Z,99053.33
2018-08-16T13:37:57.055Z,99048.31
2018-08-16T13:40:25.866Z,99043.88
2018-08-16T13:42:54.657Z,99044.20
2018-08-16T13:45:23.602Z,99047.67
2018-08-16T13:47:52.429Z,99046.73
2018-08-16T13:50:21.282Z,99040.88
2018-08-16T13:52:50.081Z,99038.89
2018-08-16T13:55:19.002Z,99033.19
2018-08-16T13:57:48.365Z,99036.51
2018-08-16T14:00:17.182Z,99035.25
2018-08-16T14:02:46.131Z,99040.05
2018-08-16T14:05:15.047Z,99038.51
2018-08-16T14:07:43.976Z,99038.06
2018-08-16T14:10:12.935Z,99032.37
2018-08-16T14:12:42.559Z,99042.74
2018-08-16T14:15:11.391Z,99040.14
2018-08-16T14:17:40.179Z,99037.61
2018-08-16T14:20:09.515Z,99046.93
2018-08-16T14:22:38.303Z,99045.38
2018-08-16T14:25:07.641Z,99043.67
2018-08-16T14:27:36.494Z,99031.05
2018-08-16T14:30:06.848Z,99030.17
2018-08-16T14:32:35.894Z,99024.62
2018-08-16T14:35:04.984Z,99026.52
2018-08-16T14:37:35.446Z,99024.43
2018-08-16T14:40:04.374Z,99026.97
2018-08-16T14:42:33.294Z,99022.21
2018-08-16T14:45:02.232Z,99019.62
2018-08-16T14:47:31.240Z,99024.48
2018-08-16T14:50:00.157Z,99024.11
2018-08-16T14:52:28.967Z,99022.86
2018-08-16T14:54:57.888Z,99022.89
2018-08-16T14:57:26.763Z,99024.09
2018-08-16T14:59:55.501Z,99026.37
2018-08-16T15:02:24.473Z,99015.39
2018-08-16T15:04:53.429Z,99014.45
2018-08-16T15:07:22.416Z,99016.35
2018-08-16T15:09:51.630Z,99016.94
2018-08-16T15:12:20.498Z,99015.89
2018-08-16T15:14:49.330Z,99015.83
2018-08-16T15:17:18.332Z,99019.92
2018-08-16T15:19:47.276Z,99017.69
2018-08-16T15:22:16.251Z,99021.84
2018-08-16T15:24:45.366Z,99025.39
2018-08-16T15:27:14.145Z,99020.61
2018-08-16T15:29:43.076Z,99015.09
2018-08-16T15:32:12.268Z,99012.94
2018-08-16T15:34:41.024Z,99014.95
2018-08-16T15:37:10.005Z,99020.30
2018-08-16T15:39:39.295Z,99023.09
2018-08-16T15:42:08.113Z,99012.84
2018-08-16T15:44:36.963Z,99027.36
2018-08-16T15:47:06.377Z,99012.01
2018-08-16T15:49:35.250Z,99012.16
2018-08-16T15:52:04.215Z,99011.47
2018-08-16T15:54:33.478Z,99011.36
2018-08-16T16:03:47.411Z,99013.14
2018-08-16T16:06:16.433Z,99013.91
2018-08-16T16:08:45.276Z,99013.08
2018-08-16T16:11:14.689Z,99022.17
2018-08-16T16:13:43.680Z,99008.80
2018-08-16T16:16:12.539Z,99025.46
2018-08-16T16:18:41.984Z,99017.37
2018-08-16T16:21:10.929Z,99020.95
2018-08-16T16:23:39.803Z,99021.09
2018-08-16T16:26:09.060Z,99020.66
2018-08-16T16:28:37.994Z,99017.67
2018-08-16T16:32:09.588Z,99026.48
2018-08-16T16:34:38.424Z,99017.05
2018-08-16T16:37:07.312Z,99020.08
2018-08-16T16:39:36.315Z,99022.42
2018-08-16T16:42:05.302Z,99024.78
2018-08-16T16:44:33.974Z,99029.42
2018-08-16T16:47:03.221Z,99026.69
2018-08-16T16:49:32.101Z,99021.96
2018-08-16T16:52:01.008Z,99033.52
2018-08-16T16:54:29.985Z,99031.52
2018-08-16T16:56:58.936Z,99024.09
2018-08-16T16:59:27.849Z,99024.55
2018-08-16T17:01:56.759Z,99026.05
2018-08-16T17:04:25.636Z,99028.80
2018-08-16T17:06:54.856Z,99028.62
2018-08-16T17:09:24.258Z,99023.42
2018-08-16T17:12:55.556Z,99027.59
2018-08-16T17:15:24.613Z,99034.09
2018-08-16T17:17:53.538Z,99030.42
2018-08-16T17:20:22.356Z,99030.63
2018-08-16T17:22:51.220Z,99032.94
2018-08-16T17:25:20.002Z,99035.55
2018-08-16T17:27:48.825Z,99029.95
2018-08-16T17:30:18.090Z,99037.19
2018-08-16T17:32:46.958Z,99036.53
2018-08-16T17:35:15.843Z,99046.78
2018-08-16T17:37:45.112Z,99040.49
2018-08-16T17:40:14.033Z,99047.92
2018-08-16T17:44:12.362Z,99046.09
2018-08-16T17:46:41.368Z,99056.20
2018-08-16T17:49:10.337Z,99053.02
2018-08-16T17:51:39.467Z,99061.81
2018-08-16T17:54:08.311Z,99058.91
2018-08-16T17:56:37.127Z,99065.39
2018-08-16T17:59:06.385Z,99069.17
2018-08-16T18:01:35.366Z,99071.17
2018-08-16T18:04:04.294Z,99072.44
2018-08-16T18:06:33.241Z,99074.47
2018-08-16T18:09:02.139Z,99075.23
2018-08-16T18:11:30.953Z,99065.91
2018-08-16T18:15:02.709Z,99065.80
2018-08-16T18:17:31.560Z,99065.94
2018-08-16T18:20:00.524Z,99069.17
2018-08-16T18:22:29.834Z,99064.92
2018-08-16T18:24:58.824Z,99068.03
2018-08-16T18:27:27.663Z,99077.65
2018-08-16T18:29:56.638Z,99080.42
2018-08-16T18:32:25.608Z,99093.80
2018-08-16T18:34:54.617Z,99093.06
2018-08-16T18:37:23.705Z,99105.75
2018-08-16T18:39:52.766Z,99111.32
2018-08-16T18:42:21.952Z,99121.36
2018-08-16T18:44:51.419Z,99115.09
2018-08-16T18:47:20.713Z,99123.41
2018-08-16T18:49:49.861Z,99133.38
2018-08-16T18:52:18.782Z,99139.81
2018-08-16T18:54:47.748Z,99136.20
2018-08-16T18:57:16.806Z,99139.23
2018-08-16T18:59:45.982Z,99143.95
2018-08-16T19:02:14.983Z,99169.16
2018-08-16T19:04:43.835Z,99160.55
2018-08-16T19:07:12.822Z,99155.37
2018-08-16T19:09:41.674Z,99165.02
2018-08-16T19:12:10.580Z,99165.72
2018-08-16T19:14:39.740Z,99173.58
2018-08-16T19:17:08.639Z,99173.81
2018-08-16T19:19:37.379Z,99186.16
2018-08-16T19:22:06.620Z,99184.83
2018-08-16T19:24:35.497Z,99183.16
2018-08-16T19:27:04.459Z,99186.69
2018-08-16T19:29:33.332Z,99193.19
2018-08-16T19:32:02.233Z,99182.66
2018-08-16T19:34:31.062Z,99199.68
2018-08-16T19:37:00.359Z,99204.69
2018-08-16T19:39:29.238Z,99212.16
2018-08-16T19:41:58.119Z,99210.56
2018-08-16T19:44:27.371Z,99186.98
2018-08-16T19:46:56.285Z,99184.84
2018-08-16T19:49:25.226Z,99182.35
2018-08-16T19:51:54.198Z,99188.75
2018-08-16T19:54:23.242Z,99189.75
2018-08-16T19:56:52.297Z,99198.46
2018-08-16T19:59:21.505Z,99193.44
2018-08-16T20:01:50.379Z,99210.23
2018-08-16T20:04:19.281Z,99219.72
2018-08-16T20:06:48.624Z,99226.44
2018-08-16T20:09:17.524Z,99227.80
2018-08-16T20:11:46.532Z,99238.94
2018-08-16T20:14:15.524Z,99265.69
2018-08-16T20:16:44.553Z,99280.52
2018-08-16T20:19:13.507Z,99302.42
2018-08-16T20:21:44.762Z,99308.48
2018-08-16T20:24:13.771Z,99319.25
2018-08-16T20:26:43.031Z,99329.23
2018-08-16T20:29:12.052Z,99315.05
2018-08-16T20:31:43.175Z,99308.58
2018-08-16T20:34:12.564Z,99305.66
2018-08-16T20:36:41.634Z,99305.11
2018-08-16T20:39:10.720Z,99295.48
2018-08-16T20:41:40.002Z,99298.00
2018-08-16T20:44:10.328Z,99299.98
2018-08-16T20:46:39.673Z,99304.14
2018-08-16T20:49:09.194Z,99303.30
2018-08-16T20:51:38.714Z,99298.30
2018-08-16T20:54:07.903Z,99294.73
2018-08-16T20:56:36.910Z,99284.67
2018-08-16T20:59:06.018Z,99281.86
2018-08-16T21:01:35.119Z,99273.14
2018-08-16T21:04:04.272Z,99273.31
2018-08-16T21:06:33.156Z,99282.56
2018-08-16T21:09:02.208Z,99279.70
2018-08-16T21:11:31.235Z,99285.59
2018-08-16T21:14:00.365Z,99289.09
2018-08-16T21:16:29.426Z,99306.08
2018-08-16T21:18:59.086Z,99319.66
2018-08-16T21:21:28.043Z,99320.11
2018-08-16T21:23:57.034Z,99341.40
2018-08-16T21:26:26.571Z,99362.95
2018-08-16T21:28:55.395Z,99362.75
2018-08-16T21:31:24.303Z,99373.69
2018-08-16T21:33:53.843Z,99371.80
2018-08-16T21:36:22.785Z,99372.42
2018-08-16T21:38:51.813Z,99367.95
2018-08-16T21:41:20.780Z,99364.26
2018-08-16T21:43:49.815Z,99362.58
2018-08-16T21:46:18.667Z,99354.83
2018-08-16T21:48:47.690Z,99362.67
2018-08-16T21:51:16.826Z,99370.95
2018-08-16T21:53:45.727Z,99365.81
2018-08-16T21:56:15.079Z,99364.75
2018-08-16T21:58:43.991Z,99362.06
2018-08-16T22:01:13.238Z,99350.61
2018-08-16T22:03:42.729Z,99341.89
2018-08-16T22:06:16.150Z,99345.27
2018-08-16T22:08:52.233Z,99340.31
2018-08-16T22:11:21.223Z,99334.33
2018-08-16T22:13:50.305Z,99339.39
2018-08-16T22:16:19.908Z,99331.48
2018-08-16T22:18:48.934Z,99321.08
2018-08-16T22:21:17.984Z,99307.30
2018-08-16T22:23:47.579Z,99300.95
2018-08-16T22:26:16.972Z,99291.36
2018-08-16T22:28:45.913Z,99288.49
2018-08-16T22:31:15.416Z,99296.39
2018-08-16T22:33:44.450Z,99298.05
2018-08-16T22:36:13.418Z,99307.48
2018-08-16T22:38:42.550Z,99296.89
2018-08-16T22:41:11.532Z,99291.45
2018-08-16T22:43:40.427Z,99308.57
2018-08-16T22:46:09.524Z,99311.09
2018-08-16T22:48:38.413Z,99302.38
2018-08-16T22:51:07.686Z,99308.80
2018-08-16T22:53:36.832Z,99306.12
2018-08-16T22:56:05.901Z,99312.84
2018-08-16T22:58:35.005Z,99306.14
2018-08-16T23:01:04.558Z,99312.88
2018-08-16T23:03:33.616Z,99313.38
2018-08-16T23:06:02.679Z,99311.53
2018-08-16T23:08:32.263Z,99315.91
2018-08-16T23:11:01.225Z,99313.56
2018-08-16T23:13:30.321Z,99317.97
2018-08-16T23:15:59.973Z,99320.26
2018-08-16T23:18:28.988Z,99313.20
2018-08-16T23:20:58.172Z,99322.11
2018-08-16T23:23:27.454Z,99319.92
2018-08-16T23:25:56.496Z,99311.84
2018-08-16T23:28:25.508Z,99316.66
2018-08-16T23:30:55.096Z,99314.61
2018-08-16T23:33:24.127Z,99319.58
2018-08-16T23:35:53.275Z,99319.50
2018-08-16T23:38:22.385Z,99309.36
2018-08-16T23:40:51.436Z,99311.09
2018-08-16T23:43:20.519Z,99310.65
2018-08-16T23:45:49.580Z,99307.91
2018-08-16T23:48:27.531Z,99306.19
2018-08-16T23:50:56.713Z,99311.03
2018-08-16T23:53:25.708Z,99321.70
2018-08-16T23:55:54.840Z,99317.48
2018-08-16T23:58:24.010Z,99313.95
